Time;durP1;ratioP1;P1;durP2;ratioP2;P2;SDS_P1;SDS_P2;PMS_P1;PMS_P2;Temp;Humidity;BMP_temperature;BMP_pressure;BME280_temperature;BME280_humidity;BME280_pressure;Samples;Min_cycle;Max_cycle;Signal;HPM_P1;HPM_P2
2023/01/15 00:00:05;;;;;;;0.20;0.20;;;;;;;9.44;100.00;98407.59;5070347;28;20170;-74
2023/01/15 00:02:30;;;;;;;0.30;0.20;;;;;;;9.49;100.00;98410.81;5070204;28;20217;-74
2023/01/15 00:04:56;;;;;;;0.30;0.30;;;;;;;9.48;100.00;98403.78;5070122;28;20197;-73
2023/01/15 00:07:21;;;;;;;0.30;0.23;;;;;;;9.45;100.00;98407.25;5070132;28;20170;-74
2023/01/15 00:09:46;;;;;;;0.43;0.43;;;;;;;9.45;100.00;98425.53;5070133;28;20692;-73
2023/01/15 00:12:12;;;;;;;0.43;0.43;;;;;;;9.42;100.00;98446.09;5070077;28;20210;-74
2023/01/15 00:14:37;;;;;;;0.20;0.10;;;;;;;9.37;100.00;98448.28;5069717;28;20216;-73
2023/01/15 00:17:02;;;;;;;0.53;0.53;;;;;;;9.32;100.00;98440.38;5068848;28;20178;-73
2023/01/15 00:19:28;;;;;;;0.10;0.10;;;;;;;9.24;100.00;98432.03;5070237;28;20228;-74
2023/01/15 00:21:53;;;;;;;2.43;0.90;;;;;;;9.17;100.00;98431.06;5070007;28;20556;-73
2023/01/15 00:29:46;;;;;;;0.40;0.20;;;;;;;8.74;100.00;98448.25;5069844;28;20442;-73
2023/01/15 00:32:11;;;;;;;0.53;0.53;;;;;;;8.26;100.00;98467.09;5069935;28;20163;-74
2023/01/15 00:34:37;;;;;;;0.20;0.20;;;;;;;7.94;100.00;98460.69;5069746;28;20542;-74
2023/01/15 00:37:02;;;;;;;0.83;0.33;;;;;;;7.67;100.00;98464.94;5069868;28;20307;-74
2023/01/15 00:39:28;;;;;;;0.30;0.30;;;;;;;7.48;100.00;98475.56;5069880;28;20227;-74
2023/01/15 00:41:54;;;;;;;0.00;0.00;;;;;;;7.39;100.00;98488.47;5069807;28;20268;-74
2023/01/15 00:44:20;;;;;;;0.10;0.10;;;;;;;7.30;100.00;98487.78;5069675;28;20171;-73
2023/01/15 00:46:46;;;;;;;0.00;0.00;;;;;;;7.10;100.00;98479.38;5069739;28;20174;-74
2023/01/15 00:49:12;;;;;;;0.00;0.00;;;;;;;7.01;100.00;98505.03;5069821;28;20256;-74
2023/01/15 00:51:37;;;;;;;0.50;0.30;;;;;;;6.64;100.00;98502.19;5072133;28;20213;-73
2023/01/15 00:54:03;;;;;;;0.00;0.00;;;;;;;6.48;100.00;98506.63;5073252;28;20544;-73
2023/01/15 00:56:28;;;;;;;0.03;0.03;;;;;;;6.37;100.00;98517.09;5073442;28;20167;-73
2023/01/15 00:58:53;;;;;;;0.00;0.00;;;;;;;6.28;100.00;98521.78;5073215;28;20186;-73
2023/01/15 01:01:19;;;;;;;1.70;0.27;;;;;;;6.25;100.00;98538.72;5073273;28;20269;-74
2023/01/15 01:03:47;;;;;;;0.10;0.10;;;;;;;6.18;100.00;98538.44;5073033;28;20171;-73
2023/01/15 01:06:15;;;;;;;0.77;0.30;;;;;;;6.11;100.00;98563.38;5073163;28;20261;-74
2023/01/15 01:08:41;;;;;;;0.43;0.43;;;;;;;6.08;100.00;98561.31;5073065;28;20181;-74
2023/01/15 01:11:09;;;;;;;23.37;0.33;;;;;;;6.08;100.00;98568.66;5073391;28;20241;-74
2023/01/15 01:13:36;;;;;;;2.60;0.43;;;;;;;6.02;100.00;98559.91;5072547;28;20229;-73
2023/01/15 01:16:02;;;;;;;1.60;0.50;;;;;;;6.01;100.00;98581.91;5072833;28;20178;-73
2023/01/15 01:18:28;;;;;;;5.40;0.20;;;;;;;5.96;100.00;98594.53;5071513;28;20606;-73
2023/01/15 01:20:54;;;;;;;0.53;0.53;;;;;;;5.94;100.00;98596.78;5072516;28;20178;-73
2023/01/15 01:23:21;;;;;;;0.37;0.37;;;;;;;5.91;100.00;98589.28;5071311;28;20186;-73
2023/01/15 01:25:46;;;;;;;0.63;0.40;;;;;;;5.84;100.00;98599.03;5072792;28;20179;-73
2023/01/15 01:28:11;;;;;;;0.83;0.43;;;;;;;5.81;100.00;98613.22;5072680;28;20178;-73
2023/01/15 01:30:37;;;;;;;0.60;0.40;;;;;;;5.78;100.00;98616.56;5072154;28;20293;-73
2023/01/15 01:33:02;;;;;;;0.00;0.00;;;;;;;5.75;100.00;98619.94;5072594;28;20591;-73
2023/01/15 01:35:28;;;;;;;0.00;0.00;;;;;;;5.69;100.00;98638.28;5072647;28;20202;-73
2023/01/15 01:37:53;;;;;;;0.43;0.30;;;;;;;5.61;100.00;98641.81;5072659;28;20183;-74
2023/01/15 01:40:19;;;;;;;0.07;0.07;;;;;;;5.53;100.00;98645.34;5071399;28;20237;-74
2023/01/15 01:42:44;;;;;;;1.03;0.27;;;;;;;5.45;100.00;98638.03;5072192;28;20182;-74
2023/01/15 01:45:24;;;;;;;0.20;0.20;;;;;;;5.36;100.00;98644.25;5072377;28;20178;-73
2023/01/15 01:47:53;;;;;;;0.53;0.10;;;;;;;5.29;100.00;98665.59;5072442;28;20237;-73
2023/01/15 01:50:20;;;;;;;0.00;0.00;;;;;;;5.26;100.00;98657.34;5072677;28;20225;-73
2023/01/15 01:52:55;;;;;;;0.10;0.10;;;;;;;5.22;100.00;98668.00;5072598;28;20475;-73
2023/01/15 01:55:23;;;;;;;0.10;0.10;;;;;;;5.17;100.00;98664.66;5072706;28;20554;-75
2023/01/15 01:57:51;;;;;;;0.00;0.00;;;;;;;5.04;100.00;98650.97;5072625;28;20175;-75
2023/01/15 02:00:17;;;;;;;1.20;0.50;;;;;;;4.95;100.00;98650.19;5073010;28;20642;-74
2023/01/15 02:02:46;;;;;;;0.20;0.20;;;;;;;4.89;100.00;98647.94;5071834;28;20178;-75
2023/01/15 02:05:25;;;;;;;0.10;0.10;;;;;;;4.84;100.00;98664.34;5073273;28;20189;-75
2023/01/15 02:07:50;;;;;;;0.10;0.10;;;;;;;4.74;100.00;98644.59;5072875;28;20513;-75
2023/01/15 02:10:16;;;;;;;0.03;0.03;;;;;;;4.69;100.00;98660.97;5072373;28;20199;-75
2023/01/15 02:12:46;;;;;;;0.10;0.10;;;;;;;4.67;100.00;98657.00;5072176;28;20228;-76
2023/01/15 02:15:18;;;;;;;0.00;0.00;;;;;;;4.61;100.00;98663.66;5072277;28;20175;-75
2023/01/15 02:18:01;;;;;;;0.57;0.10;;;;;;;4.57;100.00;98658.09;5072235;28;20175;-75
2023/01/15 02:20:38;;;;;;;3.73;0.30;;;;;;;4.57;100.00;98663.50;5072241;28;20646;-74
2023/01/15 02:23:19;;;;;;;4.07;0.50;;;;;;;4.55;100.00;98676.53;5071957;28;20239;-75
2023/01/15 02:26:01;;;;;;;0.43;0.30;;;;;;;4.53;100.00;98667.94;5071997;28;20166;-75
2023/01/15 02:28:46;;;;;;;1.00;0.60;;;;;;;4.51;100.00;98678.28;5070680;28;20170;-75
2023/01/15 02:31:29;;;;;;;0.10;0.10;;;;;;;4.50;100.00;98697.53;5070653;28;20232;-75
2023/01/15 02:34:04;;;;;;;0.93;0.13;;;;;;;4.46;100.00;98684.63;5071716;28;20197;-75
2023/01/15 02:36:34;;;;;;;0.53;0.30;;;;;;;4.45;100.00;98666.00;5070529;28;20510;-76
2023/01/15 02:39:04;;;;;;;0.20;0.20;;;;;;;4.43;100.00;98696.06;5071901;28;20166;-75
2023/01/15 02:41:35;;;;;;;0.10;0.10;;;;;;;4.41;100.00;98686.69;5071697;28;20174;-76
2023/01/15 02:44:04;;;;;;;0.40;0.40;;;;;;;4.40;100.00;98687.78;5071520;28;20165;-76
2023/01/15 02:46:33;;;;;;;0.20;0.20;;;;;;;4.38;100.00;98684.63;5071583;28;20635;-75
2023/01/15 02:49:01;;;;;;;0.80;0.23;;;;;;;4.33;100.00;98668.53;5070172;28;20666;-76
2023/01/15 02:51:32;;;;;;;0.03;0.03;;;;;;;4.31;100.00;98668.03;5070244;28;20174;-75
2023/01/15 02:54:03;;;;;;;0.40;0.40;;;;;;;4.34;100.00;98673.63;5071610;28;20201;-75
2023/01/15 02:56:34;;;;;;;0.20;0.10;;;;;;;4.34;100.00;98645.78;5070110;28;20170;-75
2023/01/15 02:59:05;;;;;;;0.30;0.10;;;;;;;4.35;100.00;98644.69;5071376;28;20166;-75
2023/01/15 03:01:35;;;;;;;0.67;0.20;;;;;;;4.36;100.00;98657.91;5071490;28;20253;-75
2023/01/15 03:04:09;;;;;;;0.00;0.00;;;;;;;4.38;100.00;98649.47;5069810;28;20237;-75
2023/01/15 03:06:43;;;;;;;0.00;0.00;;;;;;;4.39;100.00;98641.03;5071157;28;20236;-74
2023/01/15 03:09:09;;;;;;;0.00;0.00;;;;;;;4.41;100.00;98632.63;5071150;28;20207;-74
2023/01/15 03:11:40;;;;;;;0.00;0.00;;;;;;;4.39;100.00;98641.03;5069847;28;20548;-74
2023/01/15 03:14:13;;;;;;;0.27;0.10;;;;;;;4.37;100.00;98643.25;5070797;28;20254;-75
2023/01/15 03:16:48;;;;;;;0.00;0.00;;;;;;;4.42;100.00;98632.28;5071132;28;20177;-74
2023/01/15 03:19:30;;;;;;;0.00;0.00;;;;;;;4.47;100.00;98647.56;5070954;28;20178;-74
2023/01/15 03:22:18;;;;;;;2.77;0.20;;;;;;;4.47;100.00;98636.75;5071109;28;20178;-74
2023/01/15 03:24:47;;;;;;;0.07;0.07;;;;;;;4.45;100.00;98639.78;5070772;28;20236;-75
2023/01/15 03:27:14;;;;;;;0.30;0.23;;;;;;;4.43;100.00;98635.78;5071042;28;20170;-74
2023/01/15 03:29:46;;;;;;;0.00;0.00;;;;;;;4.43;100.00;98624.97;5069634;28;20666;-75
2023/01/15 03:32:11;;;;;;;1.57;0.47;;;;;;;4.43;100.00;98627.69;5070974;28;20175;-75
2023/01/15 03:34:42;;;;;;;0.00;0.00;;;;;;;4.44;100.00;98623.88;5069412;28;20179;-74
2023/01/15 03:37:07;;;;;;;0.97;0.20;;;;;;;4.44;100.00;98610.34;5070859;28;20622;-74
2023/01/15 03:39:33;;;;;;;0.20;0.13;;;;;;;4.47;100.00;98598.91;5070781;28;20186;-74
2023/01/15 03:42:12;;;;;;;0.27;0.17;;;;;;;4.51;100.00;98599.88;5070840;28;20182;-74
2023/01/15 03:45:16;;;;;;;0.63;0.23;;;;;;;4.54;100.00;98614.66;5069337;28;20170;-75
2023/01/15 03:48:01;;;;;;;0.87;0.27;;;;;;;4.58;100.00;98621.03;5057918;28;20669;-75
2023/01/15 03:50:47;;;;;;;0.10;0.10;;;;;;;4.67;100.00;98608.31;5070264;28;20190;-74
2023/01/15 03:53:34;;;;;;;0.33;0.33;;;;;;;4.69;100.00;98625.03;5070797;28;20198;-75
2023/01/15 03:56:13;;;;;;;0.67;0.17;;;;;;;4.69;100.00;98601.47;5070676;28;20162;-74
2023/01/15 03:59:11;;;;;;;0.23;0.13;;;;;;;4.70;100.00;98603.06;5070928;28;20166;-75
2023/01/15 04:01:40;;;;;;;0.50;0.30;;;;;;;4.73;100.00;98599.72;5042857;28;20186;-75
2023/01/15 04:04:06;;;;;;;0.40;0.20;;;;;;;4.75;100.00;98602.88;5070396;28;20166;-75
2023/01/15 04:06:35;;;;;;;0.47;0.10;;;;;;;4.77;100.00;98595.28;5070500;28;20187;-75
2023/01/15 04:09:03;;;;;;;6.13;0.40;;;;;;;4.83;100.00;98601.31;5070577;28;20174;-74
2023/01/15 04:11:29;;;;;;;0.20;0.20;;;;;;;4.85;100.00;98603.69;5068992;28;20185;-74
2023/01/15 04:13:54;;;;;;;0.17;0.00;;;;;;;4.88;100.00;98603.06;5070309;28;20269;-75
2023/01/15 04:16:30;;;;;;;0.10;0.10;;;;;;;4.89;100.00;98605.44;5069166;28;20184;-74
2023/01/15 04:18:56;;;;;;;0.00;0.00;;;;;;;4.92;100.00;98582.34;5070443;28;20216;-74
2023/01/15 04:21:21;;;;;;;0.23;0.10;;;;;;;4.89;100.00;98585.69;5070510;28;20179;-75
2023/01/15 04:23:47;;;;;;;0.27;0.13;;;;;;;4.94;100.00;98593.69;5068982;28;20532;-75
2023/01/15 04:26:13;;;;;;;0.33;0.13;;;;;;;5.00;98.13;98597.78;5072087;28;20181;-75
2023/01/15 04:28:38;;;;;;;0.63;0.20;;;;;;;4.97;98.72;98593.81;5072530;28;20213;-73
2023/01/15 04:31:04;;;;;;;0.20;0.20;;;;;;;4.97;97.93;98580.28;5074710;28;20210;-74
2023/01/15 04:33:29;;;;;;;0.00;0.00;;;;;;;4.97;98.41;98583.00;5076919;28;20197;-73
2023/01/15 04:35:57;;;;;;;0.17;0.17;;;;;;;4.99;98.27;98585.38;5079011;28;20179;-74
2023/01/15 04:38:22;;;;;;;0.00;0.00;;;;;;;4.99;97.98;98566.44;5074141;28;20734;-74
2023/01/15 04:46:20;;;;;;;0.20;0.20;;;;;;;5.00;97.51;98549.88;5074835;28;20197;-73
2023/01/15 04:48:45;;;;;;;0.97;0.40;;;;;;;5.03;97.61;98551.94;5074089;28;20174;-73
2023/01/15 04:51:10;;;;;;;0.67;0.20;;;;;;;5.02;97.34;98574.72;5073992;28;20627;-73
2023/01/15 04:53:36;;;;;;;2.87;0.40;;;;;;;5.08;96.99;98564.53;5072287;28;20634;-73
2023/01/15 04:56:04;;;;;;;0.50;0.10;;;;;;;5.11;96.35;98577.41;5073830;28;20216;-73
2023/01/15 04:58:31;;;;;;;0.30;0.30;;;;;;;5.11;96.17;98582.81;5074052;28;20653;-73
2023/01/15 05:00:56;;;;;;;0.17;0.17;;;;;;;5.19;95.18;98570.38;5073718;28;20174;-73
2023/01/15 05:03:22;;;;;;;0.10;0.10;;;;;;;5.19;95.50;98573.09;5073531;28;20174;-73
2023/01/15 05:05:49;;;;;;;1.63;0.17;;;;;;;5.22;95.04;98561.63;5073522;28;20183;-73
2023/01/15 05:08:14;;;;;;;2.53;0.67;;;;;;;5.20;95.36;98567.34;5073593;28;20634;-73
2023/01/15 05:10:40;;;;;;;0.30;0.20;;;;;;;5.20;94.81;98561.13;5073404;28;20216;-73
2023/01/15 05:13:05;;;;;;;0.13;0.13;;;;;;;5.23;94.78;98580.25;5073284;28;20178;-73
2023/01/15 05:15:30;;;;;;;0.87;0.57;;;;;;;5.27;94.00;98583.91;5073433;28;20171;-73
2023/01/15 05:17:56;;;;;;;0.97;0.33;;;;;;;5.30;93.43;98587.88;5073480;28;20171;-73
2023/01/15 05:20:21;;;;;;;0.17;0.10;;;;;;;5.32;93.22;98591.06;5073356;28;20177;-73
2023/01/15 05:22:46;;;;;;;0.20;0.20;;;;;;;5.35;92.58;98585.81;5073173;28;20186;-73
2023/01/15 05:25:11;;;;;;;0.60;0.40;;;;;;;5.34;92.28;98578.78;5073315;28;20187;-73
2023/01/15 05:27:37;;;;;;;4.73;1.00;;;;;;;5.40;91.80;98565.09;5073168;28;20228;-73
2023/01/15 05:30:02;;;;;;;1.13;0.57;;;;;;;5.42;90.91;98557.44;5073180;28;20194;-74
2023/01/15 05:32:29;;;;;;;4.40;0.50;;;;;;;5.45;91.00;98583.84;5073012;28;20217;-73
2023/01/15 05:34:54;;;;;;;0.20;0.20;;;;;;;5.40;91.71;98586.75;5073046;28;20303;-73
2023/01/15 05:37:19;;;;;;;1.30;0.30;;;;;;;5.40;91.51;98587.53;5073145;28;20178;-73
2023/01/15 05:39:45;;;;;;;1.20;0.43;;;;;;;5.45;91.08;98583.84;5073011;28;20197;-73
2023/01/15 05:42:10;;;;;;;0.13;0.13;;;;;;;5.44;90.96;98588.47;5071629;28;20186;-73
2023/01/15 05:44:35;;;;;;;3.70;0.70;;;;;;;5.42;91.47;98587.22;5072697;28;20229;-73
2023/01/15 05:47:02;;;;;;;4.60;0.60;;;;;;;5.37;91.77;98578.16;5072830;28;20175;-73
2023/01/15 05:49:30;;;;;;;7.23;0.57;;;;;;;5.38;92.06;98584.38;5072804;28;20197;-73
2023/01/15 05:51:56;;;;;;;6.03;0.20;;;;;;;5.40;92.26;98579.41;5071771;28;20231;-73
2023/01/15 05:54:27;;;;;;;0.70;0.33;;;;;;;5.37;92.52;98597.13;5072567;28;20173;-73
2023/01/15 05:56:52;;;;;;;1.90;0.73;;;;;;;5.38;92.68;98587.88;5071276;28;20178;-73
2023/01/15 05:59:22;;;;;;;0.30;0.30;;;;;;;5.38;92.52;98587.88;5072595;28;20179;-74
2023/01/15 06:01:47;;;;;;;0.40;0.30;;;;;;;5.37;92.49;98580.88;5071154;28;20175;-73
2023/01/15 06:04:13;;;;;;;0.83;0.43;;;;;;;5.41;92.26;98582.94;5071062;28;20178;-73
2023/01/15 06:06:40;;;;;;;0.40;0.10;;;;;;;5.38;93.14;98589.78;5072275;28;20496;-74
2023/01/15 06:09:05;;;;;;;0.50;0.47;;;;;;;5.35;93.62;98591.22;5070982;28;20537;-73
2023/01/15 06:11:31;;;;;;;0.57;0.47;;;;;;;5.40;93.06;98589.47;5072586;28;20200;-73
2023/01/15 06:13:56;;;;;;;1.50;0.50;;;;;;;5.38;93.30;98597.91;5072268;28;20174;-73
2023/01/15 06:16:22;;;;;;;0.37;0.30;;;;;;;5.43;93.09;98610.47;5070967;28;20170;-74
2023/01/15 06:18:47;;;;;;;10.63;0.77;;;;;;;5.40;93.16;98605.72;5072168;28;20181;-73
2023/01/15 06:21:13;;;;;;;1.10;0.57;;;;;;;5.40;92.89;98614.63;5072179;28;20175;-73
2023/01/15 06:23:39;;;;;;;4.20;0.70;;;;;;;5.42;92.91;98593.44;5071876;28;20504;-73
2023/01/15 06:26:09;;;;;;;3.70;0.50;;;;;;;5.41;92.93;98602.66;5072067;28;20174;-73
2023/01/15 06:28:35;;;;;;;0.87;0.17;;;;;;;5.38;93.15;98620.38;5070672;28;20175;-73
2023/01/15 06:31:04;;;;;;;2.63;0.20;;;;;;;5.42;92.77;98617.00;5070330;28;20599;-73
2023/01/15 06:33:30;;;;;;;3.40;0.43;;;;;;;5.40;92.89;98622.75;5071808;28;20180;-74
2023/01/15 06:35:55;;;;;;;1.33;0.47;;;;;;;5.47;92.42;98624.94;5071766;28;20175;-73
2023/01/15 06:38:20;;;;;;;1.37;0.60;;;;;;;5.44;92.39;98620.19;5071758;28;20185;-73
2023/01/15 06:40:45;;;;;;;2.93;1.53;;;;;;;5.48;92.17;98621.13;5071628;28;20305;-74
2023/01/15 06:47:19;;;;;;;0.90;0.67;;;;;;;5.56;91.02;98628.44;5072017;28;20165;-73
2023/01/15 06:48:49;;;;;;;2.17;0.40;;;;;;;5.55;90.73;98624.94;5070895;28;20181;-73
2023/01/15 06:51:18;;;;;;;1.23;0.67;;;;;;;5.54;91.27;98633.38;5071553;28;20171;-73
2023/01/15 06:53:43;;;;;;;10.00;0.97;;;;;;;5.57;90.62;98632.75;5071601;28;20177;-74
2023/01/15 06:56:09;;;;;;;3.67;0.90;;;;;;;5.57;90.92;98616.50;5071373;28;20166;-73
2023/01/15 06:58:34;;;;;;;0.67;0.20;;;;;;;5.56;91.39;98620.31;5070071;28;20640;-73
2023/01/15 07:00:59;;;;;;;1.03;0.57;;;;;;;5.60;91.10;98619.34;5070105;28;20634;-74
2023/01/15 07:03:24;;;;;;;0.00;0.00;;;;;;;5.64;90.48;98622.19;5071172;28;20865;-73
2023/01/15 07:05:50;;;;;;;2.37;0.57;;;;;;;5.64;90.60;98622.19;5071027;28;20182;-73
2023/01/15 07:08:15;;;;;;;0.60;0.57;;;;;;;5.63;90.70;98626.81;5069906;28;20181;-73
2023/01/15 07:10:40;;;;;;;2.63;0.30;;;;;;;5.66;90.32;98614.56;5071005;28;20213;-74
2023/01/15 07:13:08;;;;;;;0.47;0.30;;;;;;;5.64;90.84;98619.47;5071049;28;20272;-73
2023/01/15 07:15:34;;;;;;;4.73;0.73;;;;;;;5.64;90.51;98622.19;5071065;28;20182;-74
2023/01/15 07:17:59;;;;;;;0.00;0.00;;;;;;;5.63;90.81;98628.72;5071120;28;20175;-73
2023/01/15 07:20:25;;;;;;;7.30;0.97;;;;;;;5.65;90.46;98634.66;5071446;28;20189;-73
2023/01/15 07:22:50;;;;;;;2.00;1.33;;;;;;;5.62;90.16;98633.34;5070936;28;20589;-74
2023/01/15 07:25:16;;;;;;;1.17;0.60;;;;;;;5.65;89.18;98604.84;5071095;28;20182;-73
2023/01/15 07:27:42;;;;;;;0.70;0.30;;;;;;;5.67;88.95;98619.66;5071000;28;20177;-74
2023/01/15 07:30:08;;;;;;;0.63;0.63;;;;;;;5.64;88.67;98622.19;5071065;28;20198;-73
2023/01/15 07:32:33;;;;;;;1.30;0.40;;;;;;;5.60;89.13;98615.84;5070783;28;20649;-74
2023/01/15 07:34:59;;;;;;;2.60;0.97;;;;;;;5.57;89.35;98619.19;5071118;28;20182;-77
2023/01/15 07:37:24;;;;;;;0.30;0.30;;;;;;;5.59;89.46;98628.59;5071151;28;20252;-77
2023/01/15 07:39:49;;;;;;;1.70;1.30;;;;;;;5.59;89.61;98644.03;5070799;28;20174;-76
2023/01/15 07:50:26;;;;;;;0.53;0.50;;;;;;;5.55;89.94;98619.53;5070861;28;20220;-76
2023/01/15 07:52:52;;;;;;;3.30;0.63;;;;;;;5.55;90.02;98634.97;5070803;28;20626;-76
2023/01/15 07:55:17;;;;;;;0.53;0.30;;;;;;;5.55;90.04;98624.16;5070759;28;20175;-76
2023/01/15 07:57:43;;;;;;;0.40;0.40;;;;;;;5.55;89.97;98630.34;5070096;28;20171;-76
2023/01/15 08:00:11;;;;;;;1.40;1.00;;;;;;;5.55;90.03;98626.84;5070685;28;20221;-76
2023/01/15 08:02:37;;;;;;;0.43;0.40;;;;;;;5.57;89.45;98630.03;5074487;28;20630;-77
2023/01/15 08:05:02;;;;;;;1.07;1.03;;;;;;;5.57;89.19;98630.81;5074507;28;20193;-76
2023/01/15 08:07:28;;;;;;;5.87;0.97;;;;;;;5.60;88.98;98622.03;5074607;28;20229;-75
2023/01/15 08:09:53;;;;;;;2.53;1.00;;;;;;;5.58;88.67;98616.16;5074464;28;20582;-76
2023/01/15 08:15:15;;;;;;;1.03;0.60;;;;;;;5.61;88.15;98625.56;5074581;28;20181;-78
2023/01/15 08:17:43;;;;;;;0.37;0.37;;;;;;;5.61;87.82;98625.56;5073918;28;20166;-77
2023/01/15 08:20:15;;;;;;;0.53;0.20;;;;;;;5.62;87.40;98629.84;5074379;28;20634;-78
2023/01/15 08:22:40;;;;;;;0.40;0.40;;;;;;;5.64;87.38;98624.91;5072977;28;20179;-77
2023/01/15 08:25:08;;;;;;;1.40;0.50;;;;;;;5.66;86.84;98628.09;5074302;28;20644;-76
2023/01/15 08:27:35;;;;;;;0.10;0.10;;;;;;;5.66;87.02;98631.59;5072863;28;20261;-76
2023/01/15 08:30:01;;;;;;;1.33;0.37;;;;;;;5.67;86.99;98645.94;5074012;28;20194;-76
2023/01/15 08:32:26;;;;;;;4.57;0.40;;;;;;;5.71;86.61;98636.06;5074087;28;20181;-73
2023/01/15 08:34:51;;;;;;;3.47;1.17;;;;;;;5.72;86.21;98645.75;5073839;28;20171;-74
2023/01/15 08:37:17;;;;;;;2.53;0.60;;;;;;;5.70;86.40;98620.91;5072911;28;20181;-74
2023/01/15 08:39:42;;;;;;;7.73;1.13;;;;;;;5.76;85.81;98627.72;5074040;28;20178;-74
2023/01/15 08:42:08;;;;;;;0.10;0.10;;;;;;;5.73;85.75;98639.22;5071487;28;20179;-74
2023/01/15 08:44:33;;;;;;;1.83;0.60;;;;;;;5.73;85.33;98633.00;5072716;28;20274;-74
2023/01/15 08:46:58;;;;;;;1.73;0.70;;;;;;;5.68;85.53;98625.88;5074101;28;20179;-73
2023/01/15 08:49:24;;;;;;;9.33;0.70;;;;;;;5.64;85.79;98633.03;5073757;28;20198;-74
2023/01/15 08:51:50;;;;;;;0.00;0.00;;;;;;;5.57;86.14;98630.03;5073863;28;20186;-73
2023/01/15 08:54:18;;;;;;;4.90;0.20;;;;;;;5.50;86.16;98632.44;5073625;28;20167;-74
2023/01/15 08:56:43;;;;;;;10.60;1.13;;;;;;;5.45;86.87;98638.03;5072254;28;20210;-74
2023/01/15 08:59:09;;;;;;;0.60;0.60;;;;;;;5.43;87.31;98627.50;5073685;28;20209;-74
2023/01/15 09:01:34;;;;;;;1.07;0.60;;;;;;;5.45;86.82;98632.59;5073592;28;20622;-74
2023/01/15 09:04:00;;;;;;;2.37;0.80;;;;;;;5.44;86.87;98629.09;5073284;28;20738;-74
2023/01/15 09:06:25;;;;;;;0.43;0.43;;;;;;;5.45;86.66;98627.19;5073450;28;20193;-74
2023/01/15 09:08:51;;;;;;;0.43;0.43;;;;;;;5.43;87.27;98632.13;5073494;28;20181;-74
2023/01/15 09:11:16;;;;;;;1.80;1.27;;;;;;;5.42;87.02;98625.13;5072947;28;20286;-74
2023/01/15 09:13:41;;;;;;;0.10;0.10;;;;;;;5.44;86.39;98620.19;5073245;28;20592;-74
2023/01/15 09:16:08;;;;;;;5.03;1.03;;;;;;;5.43;86.70;98640.25;5073434;28;20254;-74
2023/01/15 09:18:35;;;;;;;0.87;0.10;;;;;;;5.43;86.42;98630.22;5073285;28;20260;-74
2023/01/15 09:21:01;;;;;;;1.33;1.13;;;;;;;5.46;86.17;98643.13;5073028;28;20182;-74
2023/01/15 09:23:26;;;;;;;6.80;0.67;;;;;;;5.49;85.96;98645.16;5073000;28;20181;-74
2023/01/15 09:25:57;;;;;;;0.87;0.77;;;;;;;5.50;85.62;98651.41;5073253;28;20253;-74
2023/01/15 09:28:22;;;;;;;0.63;0.53;;;;;;;5.49;85.58;98657.91;5073052;28;20179;-73
2023/01/15 09:30:48;;;;;;;0.07;0.00;;;;;;;5.52;85.29;98643.75;5072943;28;20243;-74
2023/01/15 09:33:13;;;;;;;1.40;1.00;;;;;;;5.55;85.64;98651.22;5072809;28;20236;-74
2023/01/15 09:35:39;;;;;;;4.93;0.87;;;;;;;5.57;85.19;98657.91;5073165;28;20171;-73
2023/01/15 09:38:05;;;;;;;0.10;0.10;;;;;;;5.61;84.68;98652.63;5072985;28;20646;-74
2023/01/15 09:40:56;;;;;;;5.10;1.43;;;;;;;5.66;84.30;98652.50;5072893;28;20258;-74
2023/01/15 09:43:46;;;;;;;1.30;1.00;;;;;;;5.69;83.95;98659.97;5072685;28;20497;-73
2023/01/15 09:46:17;;;;;;;1.57;0.70;;;;;;;5.67;84.18;98641.31;5072798;28;20164;-74
2023/01/15 09:49:04;;;;;;;3.43;1.47;;;;;;;5.74;82.21;98648.94;5072697;28;20236;-74
2023/01/15 09:51:35;;;;;;;0.27;0.27;;;;;;;5.65;81.12;98656.31;5071461;28;20170;-73
2023/01/15 09:54:28;;;;;;;14.47;1.00;;;;;;;5.41;80.13;98637.88;5072419;28;20163;-74
2023/01/15 09:56:54;;;;;;;1.43;0.57;;;;;;;5.25;80.06;98618.63;5072601;28;20162;-74
2023/01/15 09:59:32;;;;;;;1.60;0.87;;;;;;;5.08;81.22;98634.91;5071263;28;20670;-74
2023/01/15 10:02:01;;;;;;;6.27;1.13;;;;;;;4.96;83.11;98672.63;5072471;28;20186;-74
2023/01/15 10:04:37;;;;;;;4.47;0.70;;;;;;;4.74;85.47;98677.03;5071901;28;20175;-73
2023/01/15 10:07:17;;;;;;;0.30;0.30;;;;;;;4.61;87.05;98674.47;5072338;28;20166;-74
2023/01/15 10:09:43;;;;;;;1.87;0.30;;;;;;;4.46;88.71;98686.53;5072207;28;20197;-73
2023/01/15 10:12:35;;;;;;;0.20;0.20;;;;;;;4.42;89.96;98683.66;5070424;28;20583;-73
2023/01/15 10:15:13;;;;;;;1.60;0.80;;;;;;;4.34;90.82;98667.41;5072224;28;20571;-73
2023/01/15 10:17:49;;;;;;;0.20;0.20;;;;;;;4.23;92.12;98658.81;5070808;28;20175;-73
2023/01/15 10:20:48;;;;;;;0.20;0.10;;;;;;;4.24;93.13;98660.41;5072140;28;20170;-73
2023/01/15 10:23:51;;;;;;;0.30;0.20;;;;;;;4.18;93.51;98665.13;5071341;28;20170;-74
2023/01/15 10:26:31;;;;;;;1.47;1.07;;;;;;;4.17;94.38;98652.72;5072116;28;20170;-73
2023/01/15 10:28:57;;;;;;;0.70;0.20;;;;;;;4.22;95.33;98661.81;5070610;28;20171;-74
2023/01/15 10:31:40;;;;;;;1.60;0.27;;;;;;;4.32;94.90;98666.94;5071656;28;20696;-76
2023/01/15 10:34:37;;;;;;;3.90;0.20;;;;;;;4.43;94.72;98662.84;5071490;28;20253;-77
2023/01/15 10:37:05;;;;;;;0.00;0.00;;;;;;;4.50;94.78;98659.69;5071321;28;20231;-75
2023/01/15 10:40:16;;;;;;;0.40;0.40;;;;;;;4.61;93.88;98658.25;5060419;28;20546;-74
2023/01/15 10:42:57;;;;;;;2.57;0.30;;;;;;;4.70;92.59;98665.28;5051283;28;20167;-79
2023/01/15 10:45:30;;;;;;;0.00;0.00;;;;;;;4.76;91.87;98669.41;5051694;28;20166;-74
2023/01/15 10:48:07;;;;;;;0.20;0.20;;;;;;;4.84;91.41;98677.84;5051580;28;20248;-74
2023/01/15 10:50:34;;;;;;;0.67;0.67;;;;;;;4.89;90.46;98669.56;5051735;28;20619;-75
2023/01/15 10:53:16;;;;;;;0.20;0.20;;;;;;;4.97;89.35;98656.06;5051387;28;20577;-75
2023/01/15 10:55:46;;;;;;;0.37;0.30;;;;;;;5.03;88.60;98653.97;5051664;28;20205;-72
2023/01/15 10:58:37;;;;;;;1.10;0.30;;;;;;;5.08;87.54;98638.41;5050010;28;20198;-74
2023/01/15 11:01:25;;;;;;;3.93;0.40;;;;;;;5.07;87.07;98633.31;5051405;28;20183;-74
2023/01/15 11:03:52;;;;;;;0.63;0.60;;;;;;;5.15;86.22;98615.47;5051043;28;20207;-74
2023/01/15 11:06:22;;;;;;;0.10;0.10;;;;;;;5.26;85.42;98624.84;5050977;28;20261;-75
2023/01/15 11:08:51;;;;;;;1.57;0.80;;;;;;;5.38;84.80;98619.56;5051205;28;20262;-74
2023/01/15 11:20:31;;;;;;;1.67;0.53;;;;;;;5.83;81.17;98600.16;5050886;28;20262;-73
2023/01/15 11:23:05;;;;;;;0.43;0.40;;;;;;;5.91;80.89;98610.19;5050387;28;20267;-74
2023/01/15 11:25:31;;;;;;;0.37;0.37;;;;;;;5.90;80.26;98612.09;5050142;28;20163;-73
2023/01/15 11:28:04;;;;;;;1.87;0.43;;;;;;;5.94;79.62;98607.63;5050180;28;20635;-73
2023/01/15 11:30:33;;;;;;;1.70;0.77;;;;;;;5.93;79.92;98608.75;5048819;28;20203;-73
2023/01/15 11:33:02;;;;;;;1.10;0.63;;;;;;;5.98;79.53;98607.75;5050038;28;20233;-75
2023/01/15 11:35:29;;;;;;;2.00;0.97;;;;;;;5.99;79.08;98601.22;5050446;28;20217;-75
2023/01/15 11:38:05;;;;;;;5.60;1.07;;;;;;;6.03;78.45;98610.28;5049861;28;20177;-75
2023/01/15 11:40:30;;;;;;;1.60;0.57;;;;;;;6.13;78.23;98611.84;5050423;28;20636;-74
2023/01/15 11:51:41;;;;;;;3.47;1.00;;;;;;;6.10;74.84;98615.22;5050497;28;20204;-75
2023/01/15 11:54:12;;;;;;;1.70;0.20;;;;;;;6.13;75.51;98626.19;5049976;28;20240;-75
2023/01/15 11:56:41;;;;;;;0.73;0.70;;;;;;;6.17;75.48;98610.84;5048678;28;20700;-74
2023/01/15 11:59:17;;;;;;;1.07;0.60;;;;;;;6.20;74.42;98628.38;5050052;28;20233;-72
2023/01/15 12:01:56;;;;;;;0.60;0.47;;;;;;;6.29;73.98;98622.91;5056062;28;20269;-72
2023/01/15 12:04:34;;;;;;;1.87;1.00;;;;;;;6.33;73.13;98621.94;5074878;28;20253;-72
2023/01/15 12:07:02;;;;;;;0.93;0.50;;;;;;;6.33;73.49;98588.59;5070392;28;20281;-73
2023/01/15 12:09:56;;;;;;;1.73;0.63;;;;;;;6.33;73.11;98615.72;5070109;28;20194;-72
2023/01/15 12:12:43;;;;;;;0.60;0.50;;;;;;;6.33;72.19;98618.41;5069943;28;20199;-72
2023/01/15 12:15:20;;;;;;;0.93;0.40;;;;;;;6.38;72.01;98596.56;5070265;28;20228;-72
2023/01/15 12:18:01;;;;;;;0.97;0.53;;;;;;;6.46;71.70;98607.31;5069886;28;20185;-72
2023/01/15 12:20:49;;;;;;;0.57;0.50;;;;;;;6.45;71.66;98607.66;5070082;28;20693;-72
2023/01/15 12:23:53;;;;;;;2.97;0.80;;;;;;;6.36;70.52;98628.59;5069194;28;20179;-72
2023/01/15 12:26:29;;;;;;;1.60;0.60;;;;;;;6.25;71.51;98622.78;5068709;28;20175;-72
2023/01/15 12:29:20;;;;;;;3.13;0.80;;;;;;;6.16;71.79;98630.16;5069356;28;20183;-72
2023/01/15 12:31:51;;;;;;;4.80;0.67;;;;;;;6.17;71.16;98610.06;5069129;28;20263;-72
2023/01/15 12:34:22;;;;;;;2.10;0.20;;;;;;;6.14;72.57;98621.56;5067789;28;20618;-72